createdAt,value
2023-05-17T04:44:27.965Z,100378.34
2023-05-17T04:46:55.557Z,100378.64
2023-05-17T04:49:22.537Z,100377.89
2023-05-17T04:51:49.533Z,100379.77
2023-05-17T04:54:16.814Z,100377.85
2023-05-17T04:56:43.957Z,100376.55
2023-05-17T04:59:14.788Z,100375.23
2023-05-17T05:01:41.976Z,100372.89
2023-05-17T05:04:09.021Z,100372.12
2023-05-17T05:06:40.874Z,100371.34
2023-05-17T05:09:07.929Z,100365.44
2023-05-17T05:11:36.373Z,100363.27
2023-05-17T05:14:03.837Z,100362.96
2023-05-17T05:16:31.108Z,100363.14
2023-05-17T05:19:00.859Z,100358.70
2023-05-17T05:21:28.827Z,100357.06
2023-05-17T05:23:56.320Z,100358.02
2023-05-17T05:26:24.354Z,100356.11
2023-05-17T05:28:52.489Z,100353.14
2023-05-17T05:31:29.786Z,100352.92
2023-05-17T05:42:32.910Z,100359.69
2023-05-17T05:49:44.318Z,100358.46
2023-05-17T05:53:19.933Z,100357.07
2023-05-17T05:56:33.220Z,100359.69
2023-05-17T06:03:42.184Z,100364.04
2023-05-17T06:11:06.402Z,100356.34
2023-05-17T06:13:39.437Z,100354.15
2023-05-17T06:16:06.960Z,100354.62
2023-05-17T06:18:52.315Z,100352.23
2023-05-17T06:21:24.573Z,100350.41
2023-05-17T06:23:54.149Z,100350.80
2023-05-17T06:26:35.257Z,100350.23
2023-05-17T06:29:02.370Z,100353.83
2023-05-17T06:31:29.570Z,100353.26
2023-05-17T06:34:00.056Z,100353.89
2023-05-17T06:36:33.875Z,100357.13
2023-05-17T06:39:10.924Z,100353.58
2023-05-17T06:41:56.510Z,100350.08
2023-05-17T06:44:29.348Z,100354.85
2023-05-17T06:46:56.756Z,100353.54
2023-05-17T06:50:43.741Z,100350.39
2023-05-17T06:54:45.094Z,100349.45
2023-05-17T07:02:33.761Z,100353.21
2023-05-17T07:05:52.128Z,100354.00
2023-05-17T07:09:20.746Z,100354.27
2023-05-17T07:12:18.366Z,100353.65
2023-05-17T07:14:46.035Z,100355.28
2023-05-17T07:17:50.108Z,100356.77
2023-05-17T07:20:31.657Z,100355.35
2023-05-17T07:23:11.394Z,100353.03
2023-05-17T07:25:45.258Z,100353.05
2023-05-17T07:28:21.626Z,100354.02
2023-05-17T07:30:51.494Z,100354.27
2023-05-17T07:33:36.899Z,100351.80
2023-05-17T07:36:09.601Z,100352.90
2023-05-17T07:38:47.391Z,100355.02
2023-05-17T07:45:47.531Z,100358.29
2023-05-17T07:48:20.689Z,100357.61
2023-05-17T07:50:55.469Z,100356.41
2023-05-17T07:53:44.644Z,100357.88
2023-05-17T07:56:39.952Z,100360.36
2023-05-17T07:59:15.164Z,100363.40
2023-05-17T08:01:47.343Z,100364.49
2023-05-17T08:04:20.761Z,100368.70
2023-05-17T08:06:55.504Z,100370.64
2023-05-17T08:09:22.926Z,100370.66
2023-05-17T08:12:02.363Z,100370.76
2023-05-17T08:14:41.192Z,100373.64
2023-05-17T08:17:22.317Z,100370.09
2023-05-17T08:19:52.335Z,100373.09
2023-05-17T08:22:31.295Z,100374.27
2023-05-17T08:25:16.853Z,100374.71
2023-05-17T08:28:17.797Z,100374.24
2023-05-17T08:31:20.014Z,100372.98
2023-05-17T08:33:54.464Z,100370.54
2023-05-17T08:36:59.001Z,100364.65
2023-05-17T08:40:11.238Z,100366.33
2023-05-17T08:43:30.162Z,100364.31
2023-05-17T08:46:03.899Z,100360.27
2023-05-17T08:48:38.576Z,100355.50
2023-05-17T08:52:10.826Z,100354.95
2023-05-17T08:59:19.795Z,100348.86
2023-05-17T09:02:14.609Z,100350.92
2023-05-17T09:04:57.432Z,100352.36
2023-05-17T09:07:55.407Z,100346.21
2023-05-17T09:14:47.350Z,100343.19
2023-05-17T09:20:54.651Z,100341.96
2023-05-17T09:24:18.548Z,100340.19
2023-05-17T09:27:17.539Z,100344.05
2023-05-17T09:29:58.073Z,100340.70
2023-05-17T09:32:28.699Z,100342.66
2023-05-17T09:34:59.191Z,100341.64
2023-05-17T09:37:26.566Z,100341.90
2023-05-17T09:39:54.916Z,100335.23
2023-05-17T09:42:22.252Z,100335.72
2023-05-17T09:44:55.035Z,100332.68
2023-05-17T09:47:26.960Z,100333.34
2023-05-17T09:50:04.295Z,100332.67
2023-05-17T09:53:21.153Z,100329.19
2023-05-17T09:56:50.124Z,100328.16
2023-05-17T09:59:41.810Z,100327.80
2023-05-17T10:02:45.675Z,100322.91
2023-05-17T10:05:32.876Z,100324.35
2023-05-17T10:08:01.227Z,100320.96
2023-05-17T10:10:29.898Z,100326.09
2023-05-17T10:12:57.543Z,100319.57
2023-05-17T10:15:25.965Z,100318.43
2023-05-17T10:17:53.715Z,100315.80
2023-05-17T10:20:21.703Z,100310.03
2023-05-17T10:22:48.674Z,100309.59
2023-05-17T10:25:18.389Z,100307.67
2023-05-17T10:27:49.697Z,100303.36
2023-05-17T10:30:17.648Z,100299.44
2023-05-17T10:32:49.337Z,100300.26
2023-05-17T10:35:16.764Z,100301.88
2023-05-17T10:37:44.201Z,100298.44
2023-05-17T10:40:13.614Z,100298.66
2023-05-17T10:42:46.687Z,100295.82
2023-05-17T10:45:13.745Z,100298.01
2023-05-17T10:47:42.845Z,100291.05
2023-05-17T10:50:13.418Z,100283.43
2023-05-17T10:52:48.698Z,100287.96
2023-05-17T10:55:28.774Z,100287.66
2023-05-17T10:58:11.509Z,100293.75
2023-05-17T11:00:39.669Z,100298.68
2023-05-17T11:03:17.166Z,100290.51
2023-05-17T11:06:12.922Z,100284.81
2023-05-17T11:09:05.953Z,100285.55
2023-05-17T11:11:32.894Z,100282.03
2023-05-17T11:14:03.189Z,100280.15
2023-05-17T11:16:36.885Z,100277.49
2023-05-17T11:19:11.532Z,100276.14
2023-05-17T11:21:48.148Z,100279.64
2023-05-17T11:24:24.721Z,100278.05
2023-05-17T11:26:51.789Z,100275.70
2023-05-17T11:29:18.838Z,100277.71
2023-05-17T11:31:46.239Z,100275.02
2023-05-17T11:34:13.180Z,100271.29
2023-05-17T11:36:53.630Z,100271.15
2023-05-17T11:39:22.164Z,100266.50
2023-05-17T11:41:57.238Z,100267.13
2023-05-17T11:44:27.677Z,100269.77
2023-05-17T11:47:09.605Z,100269.48
2023-05-17T11:49:39.957Z,100267.72
2023-05-17T11:52:07.491Z,100263.73
2023-05-17T11:54:34.846Z,100260.05
2023-05-17T11:57:04.612Z,100259.97
2023-05-17T11:59:38.559Z,100254.59
2023-05-17T12:02:05.838Z,100253.90
2023-05-17T12:04:36.347Z,100250.45
2023-05-17T12:07:03.460Z,100249.78
2023-05-17T12:09:31.488Z,100248.85
2023-05-17T12:12:00.163Z,100249.71
2023-05-17T12:14:27.734Z,100246.06
2023-05-17T12:16:56.508Z,100244.60
2023-05-17T12:19:25.301Z,100243.70
2023-05-17T12:21:52.438Z,100241.14
2023-05-17T12:24:19.448Z,100237.13
2023-05-17T12:26:47.149Z,100237.50
2023-05-17T12:29:15.980Z,100233.71
2023-05-17T12:31:52.507Z,100236.91
2023-05-17T12:34:19.552Z,100234.56
2023-05-17T12:36:46.751Z,100232.94
2023-05-17T12:39:13.975Z,100230.61
2023-05-17T12:41:41.041Z,100229.89
2023-05-17T12:44:15.100Z,100227.21
2023-05-17T12:46:43.823Z,100230.27
2023-05-17T12:49:12.014Z,100231.70
2023-05-17T12:51:45.936Z,100236.44
2023-05-17T12:54:14.268Z,100234.52
2023-05-17T12:56:44.835Z,100233.17
2023-05-17T12:59:14.806Z,100229.95
2023-05-17T13:01:48.787Z,100227.41
2023-05-17T13:04:16.756Z,100228.92
2023-05-17T13:06:50.230Z,100226.32
2023-05-17T13:09:18.794Z,100220.23
2023-05-17T13:11:52.093Z,100219.80
2023-05-17T13:14:38.640Z,100216.05
2023-05-17T13:17:06.992Z,100218.10
2023-05-17T13:19:36.185Z,100215.97
2023-05-17T13:22:06.594Z,100218.84
2023-05-17T13:24:37.815Z,100219.16
2023-05-17T13:27:05.184Z,100215.16
2023-05-17T13:29:39.583Z,100216.41
2023-05-17T13:32:08.103Z,100218.48
2023-05-17T13:34:35.343Z,100219.87
2023-05-17T13:37:02.319Z,100220.78
2023-05-17T13:39:29.318Z,100224.59
2023-05-17T13:41:56.352Z,100223.45
2023-05-17T13:44:23.288Z,100221.56
2023-05-17T13:46:50.256Z,100221.69
2023-05-17T13:49:17.750Z,100221.27
2023-05-17T13:51:45.151Z,100220.05
2023-05-17T13:54:12.126Z,100220.27
2023-05-17T13:56:39.238Z,100215.52
2023-05-17T13:59:06.123Z,100213.30
2023-05-17T14:01:33.216Z,100210.92
2023-05-17T14:04:01.056Z,100204.80
2023-05-17T14:06:28.369Z,100204.80
2023-05-17T14:08:57.416Z,100210.06
2023-05-17T14:11:24.498Z,100207.85
2023-05-17T14:13:51.939Z,100204.86
2023-05-17T14:16:19.172Z,100201.84
2023-05-17T14:18:46.752Z,100198.79
2023-05-17T14:21:13.849Z,100196.05
2023-05-17T14:23:41.046Z,100194.45
2023-05-17T14:26:09.593Z,100194.36
2023-05-17T14:28:38.460Z,100190.16
2023-05-17T14:31:06.825Z,100186.74
2023-05-17T14:33:34.258Z,100185.54
2023-05-17T14:36:01.392Z,100180.58
2023-05-17T14:38:28.531Z,100177.64
2023-05-17T14:40:56.177Z,100178.19
2023-05-17T14:43:23.691Z,100179.48
2023-05-17T14:45:50.890Z,100177.58
2023-05-17T14:48:17.883Z,100176.42
2023-05-17T14:50:44.835Z,100170.63
2023-05-17T14:53:11.962Z,100173.55
2023-05-17T14:55:38.979Z,100175.41
2023-05-17T14:58:06.581Z,100176.33
2023-05-17T15:00:33.537Z,100177.28
2023-05-17T15:03:00.649Z,100177.98
2023-05-17T15:05:28.040Z,100175.04
2023-05-17T15:07:55.164Z,100174.86
2023-05-17T15:10:22.784Z,100175.97
2023-05-17T15:12:49.925Z,100171.60
2023-05-17T15:15:17.252Z,100170.16
2023-05-17T15:17:44.414Z,100169.66
2023-05-17T15:20:12.211Z,100166.95
2023-05-17T15:22:39.347Z,100163.90
2023-05-17T15:25:06.852Z,100160.81
2023-05-17T15:27:33.919Z,100160.94
2023-05-17T15:30:01.010Z,100162.01
2023-05-17T15:32:28.027Z,100165.37
2023-05-17T15:34:55.181Z,100165.45
2023-05-17T15:37:23.153Z,100164.94
2023-05-17T15:39:50.250Z,100162.70
2023-05-17T15:42:17.231Z,100161.59
2023-05-17T15:44:44.186Z,100162.14
2023-05-17T15:47:11.313Z,100164.09
2023-05-17T15:49:39.483Z,100159.95
2023-05-17T15:52:06.938Z,100170.73
2023-05-17T15:54:33.966Z,100168.77
2023-05-17T15:57:00.970Z,100171.23
2023-05-17T15:59:27.980Z,100168.96
2023-05-17T16:01:54.953Z,100173.06
2023-05-17T16:04:22.063Z,100179.98
2023-05-17T16:06:49.097Z,100184.41
2023-05-17T16:09:16.151Z,100181.67
2023-05-17T16:11:43.185Z,100184.80
2023-05-17T16:14:10.330Z,100189.89
2023-05-17T16:16:37.290Z,100191.23
2023-05-17T16:19:04.837Z,100191.55
2023-05-17T16:21:32.762Z,100193.90
2023-05-17T16:23:59.866Z,100192.61
2023-05-17T16:26:27.773Z,100192.70
2023-05-17T16:28:56.920Z,100195.22
2023-05-17T16:31:24.014Z,100196.23
2023-05-17T16:33:51.503Z,100191.36
2023-05-17T16:36:18.817Z,100192.15
2023-05-17T16:38:45.879Z,100190.50
2023-05-17T16:41:12.830Z,100196.89
2023-05-17T16:43:39.940Z,100193.23
2023-05-17T16:46:07.125Z,100194.22
2023-05-17T16:48:34.093Z,100193.77
2023-05-17T16:51:01.166Z,100193.48
2023-05-17T16:53:31.159Z,100198.56
2023-05-17T16:55:58.220Z,100195.94
2023-05-17T16:58:26.127Z,100198.19
2023-05-17T17:00:53.206Z,100202.92
2023-05-17T17:03:20.307Z,100205.95
2023-05-17T17:05:47.465Z,100204.02
2023-05-17T17:08:14.452Z,100207.55
2023-05-17T17:10:41.568Z,100205.46
2023-05-17T17:13:08.694Z,100202.50
2023-05-17T17:15:35.775Z,100202.54
2023-05-17T17:18:02.948Z,100207.08
2023-05-17T17:20:30.224Z,100209.27
2023-05-17T17:22:57.596Z,100207.15
2023-05-17T17:25:24.875Z,100207.36
2023-05-17T17:27:53.191Z,100211.63
2023-05-17T17:30:20.586Z,100212.00
2023-05-17T17:32:47.882Z,100216.10
2023-05-17T17:35:15.194Z,100218.73
2023-05-17T17:37:42.132Z,100222.25
2023-05-17T17:40:09.480Z,100222.09
2023-05-17T17:42:36.441Z,100224.91
2023-05-17T17:45:03.767Z,100227.55
2023-05-17T17:47:30.801Z,100229.52
2023-05-17T17:49:57.908Z,100230.61
2023-05-17T17:52:25.127Z,100235.95
2023-05-17T17:54:52.172Z,100237.23
2023-05-17T17:57:19.702Z,100240.25
2023-05-17T17:59:46.667Z,100248.58
2023-05-17T18:02:13.688Z,100249.02
2023-05-17T18:04:41.324Z,100247.16
2023-05-17T18:07:08.610Z,100250.61
2023-05-17T18:09:35.897Z,100250.52
2023-05-17T18:12:03.087Z,100256.05
2023-05-17T18:14:30.171Z,100258.08
2023-05-17T18:16:57.285Z,100262.04
2023-05-17T18:19:24.592Z,100262.66
2023-05-17T18:21:51.568Z,100262.40
2023-05-17T18:24:18.740Z,100263.19
2023-05-17T18:26:45.897Z,100262.17
2023-05-17T18:29:13.010Z,100262.22
2023-05-17T18:31:40.087Z,100259.61
2023-05-17T18:34:07.266Z,100261.70
2023-05-17T18:36:34.394Z,100259.45
2023-05-17T18:39:01.571Z,100260.73
2023-05-17T18:41:28.521Z,100259.85
2023-05-17T18:43:56.111Z,100261.63
2023-05-17T18:46:23.150Z,100263.56
2023-05-17T18:48:50.381Z,100266.38
2023-05-17T18:51:17.344Z,100261.95
2023-05-17T18:53:44.778Z,100259.08
2023-05-17T18:56:12.776Z,100263.21
2023-05-17T18:58:39.898Z,100265.10
2023-05-17T19:01:07.017Z,100263.46
2023-05-17T19:03:34.304Z,100259.85
2023-05-17T19:06:01.297Z,100257.15
2023-05-17T19:08:28.370Z,100256.54
2023-05-17T19:10:56.613Z,100256.12
2023-05-17T19:13:23.671Z,100257.80
2023-05-17T19:15:52.987Z,100256.83
2023-05-17T19:18:20.184Z,100254.45
2023-05-17T19:20:47.397Z,100258.95
2023-05-17T19:23:14.280Z,100259.09
2023-05-17T19:25:41.350Z,100256.09
2023-05-17T19:28:08.298Z,100259.09
2023-05-17T19:30:35.459Z,100263.73
2023-05-17T19:33:02.873Z,100266.25
2023-05-17T19:35:30.114Z,100267.91
2023-05-17T19:37:57.407Z,100265.84
2023-05-17T19:40:24.635Z,100265.83
2023-05-17T19:42:51.711Z,100269.55
2023-05-17T19:45:18.835Z,100275.55
2023-05-17T19:47:45.865Z,100275.80
2023-05-17T19:50:13.669Z,100274.27
2023-05-17T19:52:41.162Z,100276.27
2023-05-17T19:55:08.281Z,100278.09
2023-05-17T19:57:35.383Z,100277.07
2023-05-17T20:00:02.892Z,100282.18
2023-05-17T20:02:31.481Z,100283.58
2023-05-17T20:05:02.419Z,100280.56
2023-05-17T20:07:30.821Z,100283.36
2023-05-17T20:09:57.777Z,100286.33
2023-05-17T20:12:25.909Z,100283.16
2023-05-17T20:14:53.621Z,100285.35
2023-05-17T20:17:20.779Z,100288.28
2023-05-17T20:19:47.838Z,100286.78
2023-05-17T20:22:14.984Z,100285.57
2023-05-17T20:24:44.255Z,100289.22
2023-05-17T20:27:11.635Z,100293.22
2023-05-17T20:29:38.870Z,100296.01
2023-05-17T20:32:06.651Z,100295.44
2023-05-17T20:34:33.793Z,100300.16
2023-05-17T20:37:01.255Z,100297.50
2023-05-17T20:39:28.332Z,100301.88
2023-05-17T20:41:56.952Z,100299.40
2023-05-17T20:44:24.516Z,100301.31
2023-05-17T20:46:52.164Z,100301.67
2023-05-17T20:49:19.243Z,100308.33
2023-05-17T20:51:46.428Z,100306.52
2023-05-17T20:54:13.520Z,100310.34
2023-05-17T20:56:40.533Z,100313.16
2023-05-17T20:59:07.579Z,100311.21
2023-05-17T21:01:35.004Z,100311.20
2023-05-17T21:04:02.444Z,100309.98
2023-05-17T21:06:31.854Z,100309.41
2023-05-17T21:09:02.623Z,100307.42
2023-05-17T21:11:30.016Z,100308.91
2023-05-17T21:14:00.186Z,100310.08
2023-05-17T21:16:27.224Z,100310.67
2023-05-17T21:18:54.302Z,100314.27
2023-05-17T21:21:21.487Z,100315.29
2023-05-17T21:23:48.710Z,100316.44
2023-05-17T21:26:15.933Z,100314.08
2023-05-17T21:28:42.907Z,100311.89
2023-05-17T21:31:10.014Z,100315.13
2023-05-17T21:33:37.038Z,100311.17
2023-05-17T21:36:04.527Z,100314.04
2023-05-17T21:38:31.646Z,100311.64
2023-05-17T21:40:58.586Z,100309.77
2023-05-17T21:43:25.637Z,100310.03
2023-05-17T21:45:52.836Z,100307.84
2023-05-17T21:48:19.887Z,100306.46
2023-05-17T21:50:46.814Z,100310.38
2023-05-17T21:53:14.119Z,100308.33
2023-05-17T21:55:56.379Z,100308.58
2023-05-17T21:58:28.165Z,100309.53
2023-05-17T22:00:55.291Z,100312.57
2023-05-17T22:03:22.557Z,100312.60
2023-05-17T22:05:49.838Z,100313.34
2023-05-17T22:08:16.814Z,100320.26
2023-05-17T22:10:43.777Z,100317.86
2023-05-17T22:13:12.588Z,100323.32
2023-05-17T22:15:41.726Z,100318.66
2023-05-17T22:18:09.130Z,100315.35
2023-05-17T22:20:36.114Z,100317.48
2023-05-17T22:23:03.416Z,100315.95
2023-05-17T22:25:30.384Z,100317.20
2023-05-17T22:27:57.438Z,100314.62
2023-05-17T22:30:24.341Z,100313.81
2023-05-17T22:32:54.781Z,100315.45
2023-05-17T22:35:22.070Z,100317.03
2023-05-17T22:37:50.279Z,100317.06
2023-05-17T22:40:17.635Z,100322.49
2023-05-17T22:42:45.239Z,100321.29
2023-05-17T22:45:15.339Z,100323.75
2023-05-17T22:47:47.043Z,100322.90
2023-05-17T22:50:15.977Z,100325.52
2023-05-17T22:52:43.359Z,100325.70
2023-05-17T22:55:10.678Z,100325.17
2023-05-17T22:57:37.743Z,100323.79
2023-05-17T23:00:10.897Z,100325.34
2023-05-17T23:02:38.014Z,100324.11
2023-05-17T23:05:06.024Z,100324.64
2023-05-17T23:07:37.453Z,100327.25
2023-05-17T23:10:08.461Z,100329.20
2023-05-17T23:12:36.639Z,100329.89
2023-05-17T23:15:07.041Z,100327.81
2023-05-17T23:17:35.747Z,100324.50
2023-05-17T23:20:13.214Z,100323.27
2023-05-17T23:22:40.272Z,100327.48
2023-05-17T23:25:07.872Z,100330.61
2023-05-17T23:27:35.497Z,100326.25
2023-05-17T23:30:02.772Z,100326.61
2023-05-17T23:32:32.691Z,100322.95
2023-05-17T23:35:06.148Z,100324.70
2023-05-17T23:37:33.480Z,100319.83
2023-05-17T23:40:00.661Z,100316.67
2023-05-17T23:42:29.455Z,100314.26
2023-05-17T23:44:56.539Z,100312.52
2023-05-17T23:47:23.663Z,100317.95
2023-05-17T23:49:51.350Z,100317.43
2023-05-17T23:52:19.194Z,100313.64
2023-05-17T23:54:46.841Z,100309.81
2023-05-17T23:57:14.066Z,100311.59
2023-05-17T23:59:41.324Z,100308.27
